Sect La Media Cuerda, Puerto Rico
Current Conditions -  °F | °C
As of 5:50 PM on Monday 24 Nov 2014 (Local Time) from TJBQ Reporting Station
Overcast Overcast  
Wind Chill: 79°   Ceiling: 6000
Heat Index: 82°   Visibility: 10mi
Dew Point: 72°   Wind: 16mph
Humidity: 78%   Direction: 100°E
Pressure: 30.01"   Gusts: NA
Location:  18.4951°N, 67.0273°W
Report Text: TJBQ 242150Z 10014KT 10SM SCT048 OVC060 26/22 A3001 RMK RWY08 ATIS L
Loading
Personal Weather Stations






























Interactive Weather Map New forecast layout! Learn more

10-Day Weather Forecast

Advertisements
Track Severe Weather on mobile